PWSweather.com
Personal Weather Stations
Station Observations
MENWDWX1
Menstrie, ScotlandGB

MenstrieScotlandGB

Lat: 56.148322, Lon: -3.85483

Elevation: 62

Station Type: Davis Vantage Pro 2

High Low Average
Temperature 61.2°F16.2°F 51.0°F10.6°F 56.1°F13.4°F
Dew Point 52.9°F11.6°F 44.2°F6.8°F 48.6°F9.2°F
Winds 11.5 mph -18.5 mph - Calm Calm 4.2 mph 6.8 mph
Wind Gusts 20.7 mph33.3 mph -- 7.4 mph11.9 mph
Humidity 78% 69% 76%
Pressure 29.79 in1008.80 in 29.62 in1003.00 in -
Precipitation 0.06 in1.50 in - -
Hour Temp Dew Point Humidity Winds Wind Gusts Pressure Precip Precip Rate Daily Precip Total
12:00 AM 58.0°F14.4°C 50.8°F10.4°C 77% 3.5 mph W5.6 kmh W 6.9 mph11.1 kmh 29.63 in1003.4 mb - 0.00 in0.0 mm 0.00 in0.0 mm
12:05 AM 57.7°F14.3°C 50.2°F10.1°C 76% 3.5 mph WSW5.6 kmh WSW 6.9 mph11.1 kmh 29.63 in1003.4 mb - 0.00 in0.0 mm 0.00 in0.0 mm
12:10 AM 57.5°F14.2°C 50.0°F10.0°C 76% 5.8 mph WSW9.3 kmh WSW 9.2 mph14.8 kmh 29.64 in1003.7 mb - 0.01 in0.3 mm 0.01 in0.3 mm
12:15 AM 57.2°F14.0°C 50.0°F10.0°C 77% 6.9 mph WSW11.1 kmh WSW 10.4 mph16.7 kmh 29.64 in1003.7 mb - 0.00 in0.0 mm 0.01 in0.3 mm
12:20 AM 56.8°F13.8°C 49.4°F9.7°C 76% 8.1 mph WSW13.0 kmh WSW 13.8 mph22.2 kmh 29.64 in1003.7 mb - 0.00 in0.0 mm 0.01 in0.3 mm
12:25 AM 56.2°F13.4°C 49.0°F9.4°C 77% 9.2 mph WSW14.8 kmh WSW 11.5 mph18.5 kmh 29.64 in1003.7 mb - 0.01 in0.3 mm 0.02 in0.5 mm
12:30 AM 55.4°F13.0°C 48.3°F9.1°C 77% 4.6 mph WSW7.4 kmh WSW 6.9 mph11.1 kmh 29.64 in1003.7 mb - 0.00 in0.0 mm 0.02 in0.5 mm
12:35 AM 55.0°F12.8°C 47.9°F8.8°C 77% 3.5 mph WSW5.6 kmh WSW 3.5 mph5.6 kmh 29.64 in1003.7 mb - 0.00 in0.0 mm 0.02 in0.5 mm
12:40 AM 54.7°F12.6°C 47.7°F8.7°C 77% 1.2 mph W1.9 kmh W 2.3 mph3.7 kmh 29.63 in1003.4 mb - 0.00 in0.0 mm 0.02 in0.5 mm
12:45 AM 54.6°F12.6°C 47.5°F8.6°C 77% Calm Calm 2.3 mph3.7 kmh 29.64 in1003.7 mb - 0.00 in0.0 mm 0.02 in0.5 mm
12:50 AM 54.5°F12.5°C 47.4°F8.6°C 77% Calm Calm -- 29.63 in1003.4 mb - 0.00 in0.0 mm 0.02 in0.5 mm
12:55 AM 54.4°F12.4°C 47.4°F8.6°C 77% Calm Calm -- 29.64 in1003.7 mb - 0.00 in0.0 mm 0.02 in0.5 mm
01:00 AM 54.4°F12.4°C 47.3°F8.5°C 77% 1.2 mph W1.9 kmh W 2.3 mph3.7 kmh 29.63 in1003.4 mb - 0.00 in0.0 mm 0.02 in0.5 mm
01:05 AM 54.3°F12.4°C 47.2°F8.4°C 77% 2.3 mph W3.7 kmh W 5.8 mph9.3 kmh 29.63 in1003.4 mb - 0.00 in0.0 mm 0.02 in0.5 mm
01:10 AM 54.2°F12.3°C 47.1°F8.4°C 77% 2.3 mph WSW3.7 kmh WSW 3.5 mph5.6 kmh 29.63 in1003.4 mb - 0.00 in0.0 mm 0.02 in0.5 mm
01:15 AM 54.1°F12.3°C 47.0°F8.3°C 77% Calm Calm 1.2 mph1.9 kmh 29.62 in1003.0 mb - 0.00 in0.0 mm 0.02 in0.5 mm
01:20 AM 54.0°F12.2°C 47.0°F8.3°C 77% 1.2 mph WSW1.9 kmh WSW 3.5 mph5.6 kmh 29.62 in1003.0 mb - 0.00 in0.0 mm 0.02 in0.5 mm
01:25 AM 54.0°F12.2°C 47.0°F8.3°C 77% 1.2 mph WSW1.9 kmh WSW 3.5 mph5.6 kmh 29.63 in1003.4 mb - 0.00 in0.0 mm 0.02 in0.5 mm
01:30 AM 54.0°F12.2°C 47.0°F8.3°C 77% 1.2 mph WSW1.9 kmh WSW 2.3 mph3.7 kmh 29.63 in1003.4 mb - 0.00 in0.0 mm 0.02 in0.5 mm
01:35 AM 54.0°F12.2°C 47.0°F8.3°C 77% 2.3 mph NW3.7 kmh NW 3.5 mph5.6 kmh 29.63 in1003.4 mb - 0.00 in0.0 mm 0.02 in0.5 mm
01:40 AM 54.0°F12.2°C 46.9°F8.3°C 77% 2.3 mph WNW3.7 kmh WNW 3.5 mph5.6 kmh 29.63 in1003.4 mb - 0.00 in0.0 mm 0.02 in0.5 mm
01:45 AM 53.9°F12.2°C 46.9°F8.3°C 77% 1.2 mph WSW1.9 kmh WSW 2.3 mph3.7 kmh 29.63 in1003.4 mb - 0.00 in0.0 mm 0.02 in0.5 mm
01:50 AM 53.8°F12.1°C 46.8°F8.2°C 77% 2.3 mph WSW3.7 kmh WSW 3.5 mph5.6 kmh 29.63 in1003.4 mb - 0.00 in0.0 mm 0.02 in0.5 mm
01:55 AM 53.7°F12.1°C 46.7°F8.2°C 77% 2.3 mph W3.7 kmh W 2.3 mph3.7 kmh 29.62 in1003.0 mb - 0.00 in0.0 mm 0.02 in0.5 mm
02:00 AM 53.6°F12.0°C 46.6°F8.1°C 77% 2.3 mph WSW3.7 kmh WSW 5.8 mph9.3 kmh 29.62 in1003.0 mb - 0.00 in0.0 mm 0.02 in0.5 mm
02:05 AM 53.4°F11.9°C 46.4°F8.0°C 77% 2.3 mph WSW3.7 kmh WSW 3.5 mph5.6 kmh 29.62 in1003.0 mb - 0.00 in0.0 mm 0.02 in0.5 mm
02:10 AM 53.2°F11.8°C 46.2°F7.9°C 77% 2.3 mph WSW3.7 kmh WSW 3.5 mph5.6 kmh 29.62 in1003.0 mb - 0.00 in0.0 mm 0.02 in0.5 mm
02:15 AM 53.0°F11.7°C 46.0°F7.8°C 77% 2.3 mph WSW3.7 kmh WSW 3.5 mph5.6 kmh 29.62 in1003.0 mb - 0.00 in0.0 mm 0.02 in0.5 mm
02:20 AM 52.9°F11.6°C 45.9°F7.7°C 77% 1.2 mph WSW1.9 kmh WSW 2.3 mph3.7 kmh 29.62 in1003.0 mb - 0.00 in0.0 mm 0.02 in0.5 mm
02:25 AM 52.7°F11.5°C 45.7°F7.6°C 77% 1.2 mph WSW1.9 kmh WSW 2.3 mph3.7 kmh 29.62 in1003.0 mb - 0.00 in0.0 mm 0.02 in0.5 mm
02:30 AM 52.6°F11.4°C 45.6°F7.6°C 77% 1.2 mph WSW1.9 kmh WSW 2.3 mph3.7 kmh 29.62 in1003.0 mb - 0.00 in0.0 mm 0.02 in0.5 mm
02:35 AM 52.5°F11.4°C 45.5°F7.5°C 77% 1.2 mph WSW1.9 kmh WSW 3.5 mph5.6 kmh 29.63 in1003.4 mb - 0.00 in0.0 mm 0.02 in0.5 mm
02:40 AM 52.4°F11.3°C 45.4°F7.4°C 77% 2.3 mph WSW3.7 kmh WSW 3.5 mph5.6 kmh 29.63 in1003.4 mb - 0.00 in0.0 mm 0.02 in0.5 mm
02:45 AM 52.5°F11.4°C 45.5°F7.5°C 77% 1.2 mph WSW1.9 kmh WSW 2.3 mph3.7 kmh 29.63 in1003.4 mb - 0.00 in0.0 mm 0.02 in0.5 mm
02:50 AM 52.6°F11.4°C 45.6°F7.6°C 77% 3.5 mph NW5.6 kmh NW 4.6 mph7.4 kmh 29.63 in1003.4 mb - 0.00 in0.0 mm 0.02 in0.5 mm
02:55 AM 52.7°F11.5°C 46.0°F7.8°C 78% Calm Calm 1.2 mph1.9 kmh 29.63 in1003.4 mb - 0.00 in0.0 mm 0.02 in0.5 mm
03:00 AM 52.8°F11.6°C 46.1°F7.8°C 78% 1.2 mph NW1.9 kmh NW 1.2 mph1.9 kmh 29.63 in1003.4 mb - 0.00 in0.0 mm 0.02 in0.5 mm
03:05 AM 52.9°F11.6°C 45.9°F7.7°C 77% Calm Calm -- 29.63 in1003.4 mb - 0.00 in0.0 mm 0.02 in0.5 mm
03:10 AM 53.0°F11.7°C 46.3°F7.9°C 78% Calm Calm -- 29.63 in1003.4 mb - 0.00 in0.0 mm 0.02 in0.5 mm
03:15 AM 53.0°F11.7°C 46.0°F7.8°C 77% Calm Calm -- 29.63 in1003.4 mb - 0.01 in0.3 mm 0.03 in0.8 mm
03:20 AM 53.0°F11.7°C 46.3°F7.9°C 78% Calm Calm -- 29.63 in1003.4 mb - 0.00 in0.0 mm 0.03 in0.8 mm
03:25 AM 53.0°F11.7°C 46.3°F7.9°C 78% Calm Calm -- 29.63 in1003.4 mb - 0.00 in0.0 mm 0.03 in0.8 mm
03:30 AM 52.9°F11.6°C 46.2°F7.9°C 78% 1.2 mph SW1.9 kmh SW 3.5 mph5.6 kmh 29.62 in1003.0 mb - 0.00 in0.0 mm 0.03 in0.8 mm
03:35 AM 52.8°F11.6°C 46.1°F7.8°C 78% 1.2 mph WSW1.9 kmh WSW 5.8 mph9.3 kmh 29.62 in1003.0 mb - 0.00 in0.0 mm 0.03 in0.8 mm
03:40 AM 52.6°F11.4°C 45.9°F7.7°C 78% 1.2 mph WSW1.9 kmh WSW 3.5 mph5.6 kmh 29.63 in1003.4 mb - 0.00 in0.0 mm 0.03 in0.8 mm
03:45 AM 52.4°F11.3°C 45.4°F7.4°C 77% 1.2 mph WSW1.9 kmh WSW 2.3 mph3.7 kmh 29.63 in1003.4 mb - 0.00 in0.0 mm 0.03 in0.8 mm
03:50 AM 52.2°F11.2°C 45.2°F7.3°C 77% 1.2 mph WSW1.9 kmh WSW 1.2 mph1.9 kmh 29.62 in1003.0 mb - 0.00 in0.0 mm 0.03 in0.8 mm
03:55 AM 52.0°F11.1°C 45.0°F7.2°C 77% 1.2 mph WSW1.9 kmh WSW 3.5 mph5.6 kmh 29.63 in1003.4 mb - 0.00 in0.0 mm 0.03 in0.8 mm
04:00 AM 51.8°F11.0°C 45.2°F7.3°C 78% 1.2 mph WSW1.9 kmh WSW 3.5 mph5.6 kmh 29.63 in1003.4 mb - 0.00 in0.0 mm 0.03 in0.8 mm
04:05 AM 51.6°F10.9°C 45.0°F7.2°C 78% 1.2 mph WSW1.9 kmh WSW 3.5 mph5.6 kmh 29.63 in1003.4 mb - 0.00 in0.0 mm 0.03 in0.8 mm
04:10 AM 51.4°F10.8°C 44.4°F6.9°C 77% 2.3 mph W3.7 kmh W 6.9 mph11.1 kmh 29.62 in1003.0 mb - 0.00 in0.0 mm 0.03 in0.8 mm
04:15 AM 51.2°F10.7°C 44.2°F6.8°C 77% 1.2 mph WNW1.9 kmh WNW 3.5 mph5.6 kmh 29.62 in1003.0 mb - 0.00 in0.0 mm 0.03 in0.8 mm
04:20 AM 51.0°F10.6°C 44.4°F6.9°C 78% 1.2 mph WNW1.9 kmh WNW 3.5 mph5.6 kmh 29.62 in1003.0 mb - 0.00 in0.0 mm 0.03 in0.8 mm
04:25 AM 51.0°F10.6°C 44.4°F6.9°C 78% 2.3 mph WSW3.7 kmh WSW 4.6 mph7.4 kmh 29.63 in1003.4 mb - 0.00 in0.0 mm 0.03 in0.8 mm
04:30 AM 51.2°F10.7°C 44.2°F6.8°C 77% 1.2 mph W1.9 kmh W 1.2 mph1.9 kmh 29.63 in1003.4 mb - 0.00 in0.0 mm 0.03 in0.8 mm
04:35 AM 51.3°F10.7°C 44.3°F6.8°C 77% Calm Calm 1.2 mph1.9 kmh 29.63 in1003.4 mb - 0.00 in0.0 mm 0.03 in0.8 mm
04:40 AM 51.3°F10.7°C 44.3°F6.8°C 77% Calm Calm -- 29.63 in1003.4 mb - 0.00 in0.0 mm 0.03 in0.8 mm
04:45 AM 51.3°F10.7°C 44.4°F6.9°C 77% Calm Calm -- 29.63 in1003.4 mb - 0.00 in0.0 mm 0.03 in0.8 mm
04:50 AM 51.4°F10.8°C 44.4°F6.9°C 77% Calm Calm -- 29.63 in1003.4 mb - 0.00 in0.0 mm 0.03 in0.8 mm
04:55 AM 51.5°F10.8°C 44.5°F6.9°C 77% Calm Calm -- 29.63 in1003.4 mb - 0.00 in0.0 mm 0.03 in0.8 mm
05:00 AM 51.5°F10.8°C 44.5°F6.9°C 77% Calm Calm -- 29.63 in1003.4 mb - 0.00 in0.0 mm 0.03 in0.8 mm
05:05 AM 51.5°F10.8°C 44.5°F6.9°C 77% 1.2 mph ESE1.9 kmh ESE 2.3 mph3.7 kmh 29.63 in1003.4 mb - 0.00 in0.0 mm 0.03 in0.8 mm
05:10 AM 51.6°F10.9°C 44.6°F7.0°C 77% 3.5 mph W5.6 kmh W 5.8 mph9.3 kmh 29.63 in1003.4 mb - 0.00 in0.0 mm 0.03 in0.8 mm
05:15 AM 51.7°F10.9°C 44.7°F7.1°C 77% 1.2 mph WNW1.9 kmh WNW 3.5 mph5.6 kmh 29.63 in1003.4 mb - 0.00 in0.0 mm 0.03 in0.8 mm
05:20 AM 51.8°F11.0°C 44.8°F7.1°C 77% Calm Calm 2.3 mph3.7 kmh 29.64 in1003.7 mb - 0.00 in0.0 mm 0.03 in0.8 mm
05:25 AM 52.0°F11.1°C 45.0°F7.2°C 77% Calm Calm -- 29.64 in1003.7 mb - 0.00 in0.0 mm 0.03 in0.8 mm
05:30 AM 52.1°F11.2°C 45.1°F7.3°C 77% Calm Calm -- 29.64 in1003.7 mb - 0.00 in0.0 mm 0.03 in0.8 mm
05:35 AM 52.1°F11.2°C 45.1°F7.3°C 77% Calm Calm -- 29.64 in1003.7 mb - 0.00 in0.0 mm 0.03 in0.8 mm
05:40 AM 52.2°F11.2°C 45.2°F7.3°C 77% Calm Calm -- 29.64 in1003.7 mb - 0.00 in0.0 mm 0.03 in0.8 mm
05:45 AM 52.3°F11.3°C 45.3°F7.4°C 77% Calm Calm -- 29.64 in1003.7 mb - 0.00 in0.0 mm 0.03 in0.8 mm
05:50 AM 52.2°F11.2°C 45.2°F7.3°C 77% Calm Calm -- 29.64 in1003.7 mb - 0.00 in0.0 mm 0.03 in0.8 mm
05:55 AM 52.2°F11.2°C 45.2°F7.3°C 77% Calm Calm -- 29.64 in1003.7 mb - 0.00 in0.0 mm 0.03 in0.8 mm
06:00 AM 52.3°F11.3°C 45.3°F7.4°C 77% Calm Calm -- 29.64 in1003.7 mb - 0.00 in0.0 mm 0.03 in0.8 mm
06:05 AM 52.3°F11.3°C 45.3°F7.4°C 77% Calm Calm -- 29.64 in1003.7 mb - 0.00 in0.0 mm 0.03 in0.8 mm
06:10 AM 52.3°F11.3°C 45.3°F7.4°C 77% Calm Calm -- 29.64 in1003.7 mb - 0.00 in0.0 mm 0.03 in0.8 mm
06:15 AM 52.5°F11.4°C 45.5°F7.5°C 77% Calm Calm -- 29.64 in1003.7 mb - 0.00 in0.0 mm 0.03 in0.8 mm
06:20 AM 52.6°F11.4°C 45.6°F7.6°C 77% Calm Calm -- 29.64 in1003.7 mb - 0.00 in0.0 mm 0.03 in0.8 mm
06:25 AM 52.7°F11.5°C 45.7°F7.6°C 77% Calm Calm 3.5 mph5.6 kmh 29.64 in1003.7 mb - 0.00 in0.0 mm 0.03 in0.8 mm
06:30 AM 52.8°F11.6°C 45.8°F7.7°C 77% Calm Calm 3.5 mph5.6 kmh 29.64 in1003.7 mb - 0.00 in0.0 mm 0.03 in0.8 mm
06:35 AM 52.9°F11.6°C 45.9°F7.7°C 77% 1.2 mph WSW1.9 kmh WSW 2.3 mph3.7 kmh 29.65 in1004.1 mb - 0.00 in0.0 mm 0.03 in0.8 mm
06:40 AM 52.9°F11.6°C 45.9°F7.7°C 77% 2.3 mph WSW3.7 kmh WSW 3.5 mph5.6 kmh 29.64 in1003.7 mb - 0.00 in0.0 mm 0.03 in0.8 mm
06:45 AM 52.9°F11.6°C 45.9°F7.7°C 77% Calm Calm -- 29.64 in1003.7 mb - 0.00 in0.0 mm 0.03 in0.8 mm
06:50 AM 53.0°F11.7°C 46.0°F7.8°C 77% Calm Calm -- 29.64 in1003.7 mb - 0.00 in0.0 mm 0.03 in0.8 mm
06:55 AM 53.1°F11.7°C 46.1°F7.8°C 77% Calm Calm -- 29.64 in1003.7 mb - 0.00 in0.0 mm 0.03 in0.8 mm
07:00 AM 53.3°F11.8°C 46.2°F7.9°C 77% Calm Calm 3.5 mph5.6 kmh 29.64 in1003.7 mb - 0.00 in0.0 mm 0.03 in0.8 mm
07:05 AM 53.5°F11.9°C 46.4°F8.0°C 77% 1.2 mph WSW1.9 kmh WSW 3.5 mph5.6 kmh 29.64 in1003.7 mb - 0.00 in0.0 mm 0.03 in0.8 mm
07:10 AM 53.6°F12.0°C 46.6°F8.1°C 77% 2.3 mph W3.7 kmh W 8.1 mph13.0 kmh 29.64 in1003.7 mb - 0.00 in0.0 mm 0.03 in0.8 mm
07:15 AM 53.8°F12.1°C 46.8°F8.2°C 77% 4.6 mph SW7.4 kmh SW 8.1 mph13.0 kmh 29.64 in1003.7 mb - 0.00 in0.0 mm 0.03 in0.8 mm
07:20 AM 54.0°F12.2°C 47.0°F8.3°C 77% 4.6 mph SW7.4 kmh SW 9.2 mph14.8 kmh 29.64 in1003.7 mb - 0.00 in0.0 mm 0.03 in0.8 mm
07:25 AM 54.3°F12.4°C 47.2°F8.4°C 77% 4.6 mph WSW7.4 kmh WSW 9.2 mph14.8 kmh 29.64 in1003.7 mb - 0.00 in0.0 mm 0.03 in0.8 mm
07:30 AM 54.5°F12.5°C 47.4°F8.6°C 77% 3.5 mph WSW5.6 kmh WSW 3.5 mph5.6 kmh 29.65 in1004.1 mb - 0.00 in0.0 mm 0.03 in0.8 mm
07:35 AM 54.6°F12.6°C 47.6°F8.7°C 77% 2.3 mph WSW3.7 kmh WSW 3.5 mph5.6 kmh 29.64 in1003.7 mb - 0.00 in0.0 mm 0.03 in0.8 mm
07:40 AM 54.8°F12.7°C 47.7°F8.7°C 77% 2.3 mph W3.7 kmh W 3.5 mph5.6 kmh 29.64 in1003.7 mb - 0.00 in0.0 mm 0.03 in0.8 mm
07:45 AM 54.8°F12.7°C 47.7°F8.7°C 77% 3.5 mph WSW5.6 kmh WSW 4.6 mph7.4 kmh 29.65 in1004.1 mb - 0.00 in0.0 mm 0.03 in0.8 mm
07:50 AM 54.8°F12.7°C 47.7°F8.7°C 77% 1.2 mph WSW1.9 kmh WSW 3.5 mph5.6 kmh 29.65 in1004.1 mb - 0.00 in0.0 mm 0.03 in0.8 mm
07:55 AM 54.8°F12.7°C 47.7°F8.7°C 77% 1.2 mph WSW1.9 kmh WSW 3.5 mph5.6 kmh 29.65 in1004.1 mb - 0.00 in0.0 mm 0.03 in0.8 mm
08:00 AM 54.9°F12.7°C 47.8°F8.8°C 77% 2.3 mph WSW3.7 kmh WSW 6.9 mph11.1 kmh 29.65 in1004.1 mb - 0.00 in0.0 mm 0.03 in0.8 mm
08:05 AM 55.0°F12.8°C 47.9°F8.8°C 77% 4.6 mph WSW7.4 kmh WSW 6.9 mph11.1 kmh 29.65 in1004.1 mb - 0.00 in0.0 mm 0.03 in0.8 mm
08:10 AM 55.1°F12.8°C 48.1°F8.9°C 77% 1.2 mph WSW1.9 kmh WSW 3.5 mph5.6 kmh 29.65 in1004.1 mb - 0.00 in0.0 mm 0.03 in0.8 mm
08:15 AM 55.5°F13.1°C 48.4°F9.1°C 77% 2.3 mph WSW3.7 kmh WSW 3.5 mph5.6 kmh 29.65 in1004.1 mb - 0.00 in0.0 mm 0.03 in0.8 mm
08:20 AM 55.7°F13.2°C 48.6°F9.2°C 77% 5.8 mph WSW9.3 kmh WSW 8.1 mph13.0 kmh 29.65 in1004.1 mb - 0.00 in0.0 mm 0.03 in0.8 mm
08:25 AM 55.8°F13.2°C 48.7°F9.3°C 77% 5.8 mph WSW9.3 kmh WSW 9.2 mph14.8 kmh 29.65 in1004.1 mb - 0.00 in0.0 mm 0.03 in0.8 mm
08:30 AM 56.0°F13.3°C 48.9°F9.4°C 77% 3.5 mph SW5.6 kmh SW 3.5 mph5.6 kmh 29.65 in1004.1 mb - 0.00 in0.0 mm 0.03 in0.8 mm
08:35 AM 56.3°F13.5°C 49.2°F9.6°C 77% 2.3 mph WSW3.7 kmh WSW 4.6 mph7.4 kmh 29.65 in1004.1 mb - 0.00 in0.0 mm 0.03 in0.8 mm
08:40 AM 56.6°F13.7°C 49.1°F9.5°C 76% 3.5 mph SW5.6 kmh SW 3.5 mph5.6 kmh 29.65 in1004.1 mb - 0.00 in0.0 mm 0.03 in0.8 mm
08:45 AM 56.6°F13.7°C 49.1°F9.5°C 76% 2.3 mph WSW3.7 kmh WSW 5.8 mph9.3 kmh 29.65 in1004.1 mb - 0.00 in0.0 mm 0.03 in0.8 mm
08:50 AM 56.7°F13.7°C 49.6°F9.8°C 77% 4.6 mph SW7.4 kmh SW 11.5 mph18.5 kmh 29.65 in1004.1 mb - 0.00 in0.0 mm 0.03 in0.8 mm
08:55 AM 56.7°F13.7°C 49.2°F9.6°C 76% 5.8 mph WSW9.3 kmh WSW 9.2 mph14.8 kmh 29.65 in1004.1 mb - 0.00 in0.0 mm 0.03 in0.8 mm
09:00 AM 56.9°F13.8°C 49.4°F9.7°C 76% 5.8 mph WSW9.3 kmh WSW 11.5 mph18.5 kmh 29.65 in1004.1 mb - 0.00 in0.0 mm 0.03 in0.8 mm
09:05 AM 57.0°F13.9°C 49.5°F9.7°C 76% 8.1 mph WSW13.0 kmh WSW 11.5 mph18.5 kmh 29.65 in1004.1 mb - 0.00 in0.0 mm 0.03 in0.8 mm
09:10 AM 57.1°F13.9°C 49.6°F9.8°C 76% 8.1 mph WSW13.0 kmh WSW 11.5 mph18.5 kmh 29.65 in1004.1 mb - 0.00 in0.0 mm 0.03 in0.8 mm
09:15 AM 57.2°F14.0°C 49.7°F9.8°C 76% 8.1 mph WSW13.0 kmh WSW 16.1 mph25.9 kmh 29.65 in1004.1 mb - 0.00 in0.0 mm 0.03 in0.8 mm
09:20 AM 57.1°F13.9°C 49.6°F9.8°C 76% 6.9 mph SW11.1 kmh SW 11.5 mph18.5 kmh 29.65 in1004.1 mb - 0.00 in0.0 mm 0.03 in0.8 mm
09:25 AM 57.1°F13.9°C 50.0°F10.0°C 77% 5.8 mph WSW9.3 kmh WSW 8.1 mph13.0 kmh 29.65 in1004.1 mb - 0.00 in0.0 mm 0.03 in0.8 mm
09:30 AM 57.1°F13.9°C 49.6°F9.8°C 76% 8.1 mph SW13.0 kmh SW 11.5 mph18.5 kmh 29.65 in1004.1 mb - 0.00 in0.0 mm 0.03 in0.8 mm
09:35 AM 56.9°F13.8°C 49.4°F9.7°C 76% 3.5 mph WSW5.6 kmh WSW 9.2 mph14.8 kmh 29.65 in1004.1 mb - 0.00 in0.0 mm 0.03 in0.8 mm
09:40 AM 56.9°F13.8°C 49.8°F9.9°C 77% 4.6 mph WSW7.4 kmh WSW 10.4 mph16.7 kmh 29.65 in1004.1 mb - 0.00 in0.0 mm 0.03 in0.8 mm
09:45 AM 57.1°F13.9°C 49.9°F9.9°C 77% 4.6 mph WSW7.4 kmh WSW 9.2 mph14.8 kmh 29.65 in1004.1 mb - 0.00 in0.0 mm 0.03 in0.8 mm
09:50 AM 57.2°F14.0°C 50.0°F10.0°C 77% 4.6 mph WSW7.4 kmh WSW 8.1 mph13.0 kmh 29.65 in1004.1 mb - 0.00 in0.0 mm 0.03 in0.8 mm
09:55 AM 57.5°F14.2°C 50.3°F10.2°C 77% 4.6 mph WSW7.4 kmh WSW 10.4 mph16.7 kmh 29.65 in1004.1 mb - 0.00 in0.0 mm 0.03 in0.8 mm
10:00 AM 57.7°F14.3°C 50.2°F10.1°C 76% 6.9 mph SW11.1 kmh SW 11.5 mph18.5 kmh 29.65 in1004.1 mb - 0.00 in0.0 mm 0.03 in0.8 mm
10:05 AM 57.8°F14.3°C 50.3°F10.2°C 76% 6.9 mph WSW11.1 kmh WSW 11.5 mph18.5 kmh 29.65 in1004.1 mb - 0.00 in0.0 mm 0.03 in0.8 mm
10:25 AM 56.7°F13.7°C 49.6°F9.8°C 77% 4.6 mph SW7.4 kmh SW 11.5 mph18.5 kmh 29.66 in1004.4 mb - 0.00 in0.0 mm 0.02 in0.5 mm
10:30 AM 56.9°F13.8°C 49.7°F9.8°C 77% 5.8 mph SW9.3 kmh SW 6.9 mph11.1 kmh 29.65 in1004.1 mb - 0.00 in0.0 mm 0.02 in0.5 mm
10:35 AM 57.7°F14.3°C 50.5°F10.3°C 77% 3.5 mph W5.6 kmh W 3.5 mph5.6 kmh 29.65 in1004.1 mb - 0.00 in0.0 mm 0.02 in0.5 mm
10:40 AM 58.7°F14.8°C 51.5°F10.8°C 77% 8.1 mph SW13.0 kmh SW 12.7 mph20.4 kmh 29.65 in1004.1 mb - 0.00 in0.0 mm 0.02 in0.5 mm
10:45 AM 58.9°F14.9°C 51.0°F10.6°C 75% 4.6 mph WSW7.4 kmh WSW 9.2 mph14.8 kmh 29.65 in1004.1 mb - 0.00 in0.0 mm 0.02 in0.5 mm
10:50 AM 58.9°F14.9°C 51.0°F10.6°C 75% 6.9 mph WSW11.1 kmh WSW 11.5 mph18.5 kmh 29.65 in1004.1 mb - 0.00 in0.0 mm 0.02 in0.5 mm
10:55 AM 59.0°F15.0°C 51.1°F10.6°C 75% 5.8 mph WSW9.3 kmh WSW 11.5 mph18.5 kmh 29.65 in1004.1 mb - 0.00 in0.0 mm 0.02 in0.5 mm
11:00 AM 59.2°F15.1°C 51.3°F10.7°C 75% 4.6 mph WSW7.4 kmh WSW 11.5 mph18.5 kmh 29.65 in1004.1 mb - 0.00 in0.0 mm 0.02 in0.5 mm
11:05 AM 59.1°F15.1°C 51.2°F10.7°C 75% 6.9 mph SW11.1 kmh SW 11.5 mph18.5 kmh 29.66 in1004.4 mb - 0.00 in0.0 mm 0.02 in0.5 mm
11:10 AM 58.4°F14.7°C 50.5°F10.3°C 75% 4.6 mph WSW7.4 kmh WSW 6.9 mph11.1 kmh 29.66 in1004.4 mb - 0.00 in0.0 mm 0.02 in0.5 mm
11:15 AM 58.4°F14.7°C 50.9°F10.5°C 76% 4.6 mph WSW7.4 kmh WSW 10.4 mph16.7 kmh 29.66 in1004.4 mb - 0.00 in0.0 mm 0.02 in0.5 mm
11:20 AM 59.0°F15.0°C 51.4°F10.8°C 76% 8.1 mph WSW13.0 kmh WSW 12.7 mph20.4 kmh 29.66 in1004.4 mb - 0.00 in0.0 mm 0.02 in0.5 mm
11:25 AM 59.2°F15.1°C 50.9°F10.5°C 74% 10.4 mph SW16.7 kmh SW 12.7 mph20.4 kmh 29.66 in1004.4 mb - 0.00 in0.0 mm 0.02 in0.5 mm
11:30 AM 59.3°F15.2°C 50.6°F10.3°C 73% 5.8 mph WSW9.3 kmh WSW 9.2 mph14.8 kmh 29.66 in1004.4 mb - 0.00 in0.0 mm 0.02 in0.5 mm
11:35 AM 59.6°F15.3°C 50.9°F10.5°C 73% 5.8 mph WSW9.3 kmh WSW 11.5 mph18.5 kmh 29.66 in1004.4 mb - 0.00 in0.0 mm 0.02 in0.5 mm
11:40 AM 59.7°F15.4°C 50.7°F10.4°C 72% 9.2 mph WSW14.8 kmh WSW 16.1 mph25.9 kmh 29.66 in1004.4 mb - 0.00 in0.0 mm 0.02 in0.5 mm
11:45 AM 59.8°F15.4°C 51.1°F10.6°C 73% 3.5 mph WSW5.6 kmh WSW 11.5 mph18.5 kmh 29.65 in1004.1 mb - 0.00 in0.0 mm 0.02 in0.5 mm
11:50 AM 60.0°F15.6°C 50.9°F10.5°C 72% 6.9 mph SW11.1 kmh SW 12.7 mph20.4 kmh 29.66 in1004.4 mb - 0.00 in0.0 mm 0.02 in0.5 mm
11:55 AM 60.4°F15.8°C 50.9°F10.5°C 71% 9.2 mph WSW14.8 kmh WSW 12.7 mph20.4 kmh 29.65 in1004.1 mb - 0.00 in0.0 mm 0.02 in0.5 mm
12:00 PM 60.9°F16.1°C 51.4°F10.8°C 71% 8.1 mph WSW13.0 kmh WSW 13.8 mph22.2 kmh 29.65 in1004.1 mb - 0.00 in0.0 mm 0.02 in0.5 mm
12:05 PM 61.1°F16.2°C 51.2°F10.7°C 70% 6.9 mph WSW11.1 kmh WSW 15.0 mph24.1 kmh 29.65 in1004.1 mb - 0.00 in0.0 mm 0.02 in0.5 mm
12:10 PM 60.9°F16.1°C 51.0°F10.6°C 70% 10.4 mph WSW16.7 kmh WSW 11.5 mph18.5 kmh 29.65 in1004.1 mb - 0.00 in0.0 mm 0.02 in0.5 mm
12:15 PM 60.6°F15.9°C 50.4°F10.2°C 69% 9.2 mph WSW14.8 kmh WSW 17.3 mph27.8 kmh 29.66 in1004.4 mb - 0.00 in0.0 mm 0.02 in0.5 mm
12:20 PM 60.7°F15.9°C 51.2°F10.7°C 71% 10.4 mph SW16.7 kmh SW 20.7 mph33.3 kmh 29.66 in1004.4 mb - 0.00 in0.0 mm 0.02 in0.5 mm
12:25 PM 60.7°F15.9°C 51.2°F10.7°C 71% 9.2 mph SW14.8 kmh SW 15.0 mph24.1 kmh 29.65 in1004.1 mb - 0.00 in0.0 mm 0.02 in0.5 mm
12:30 PM 60.5°F15.8°C 51.0°F10.6°C 71% 10.4 mph SW16.7 kmh SW 17.3 mph27.8 kmh 29.66 in1004.4 mb - 0.00 in0.0 mm 0.02 in0.5 mm
12:35 PM 60.3°F15.7°C 50.9°F10.5°C 71% 8.1 mph SW13.0 kmh SW 13.8 mph22.2 kmh 29.66 in1004.4 mb - 0.00 in0.0 mm 0.02 in0.5 mm
12:40 PM 60.3°F15.7°C 50.9°F10.5°C 71% 10.4 mph SW16.7 kmh SW 15.0 mph24.1 kmh 29.66 in1004.4 mb - 0.00 in0.0 mm 0.02 in0.5 mm
12:45 PM 60.2°F15.7°C 50.8°F10.4°C 71% 11.5 mph SW18.5 kmh SW 16.1 mph25.9 kmh 29.66 in1004.4 mb - 0.00 in0.0 mm 0.02 in0.5 mm
12:50 PM 60.0°F15.6°C 51.3°F10.7°C 73% 6.9 mph WSW11.1 kmh WSW 16.1 mph25.9 kmh 29.66 in1004.4 mb - 0.00 in0.0 mm 0.02 in0.5 mm
12:55 PM 59.8°F15.4°C 50.8°F10.4°C 72% 11.5 mph WSW18.5 kmh WSW 16.1 mph25.9 kmh 29.67 in1004.7 mb - 0.00 in0.0 mm 0.02 in0.5 mm
01:00 PM 59.4°F15.2°C 50.7°F10.4°C 73% 11.5 mph WSW18.5 kmh WSW 19.6 mph31.5 kmh 29.67 in1004.7 mb - 0.00 in0.0 mm 0.02 in0.5 mm
01:05 PM 58.9°F14.9°C 50.9°F10.5°C 75% 6.9 mph WSW11.1 kmh WSW 11.5 mph18.5 kmh 29.67 in1004.7 mb - 0.00 in0.0 mm 0.02 in0.5 mm
01:10 PM 58.4°F14.7°C 50.9°F10.5°C 76% 8.1 mph SW13.0 kmh SW 12.7 mph20.4 kmh 29.67 in1004.7 mb - 0.00 in0.0 mm 0.02 in0.5 mm
01:15 PM 58.2°F14.6°C 50.7°F10.4°C 76% 3.5 mph SW5.6 kmh SW 9.2 mph14.8 kmh 29.67 in1004.7 mb - 0.00 in0.0 mm 0.02 in0.5 mm
01:20 PM 58.4°F14.7°C 50.8°F10.4°C 76% 6.9 mph WSW11.1 kmh WSW 9.2 mph14.8 kmh 29.67 in1004.7 mb - 0.00 in0.0 mm 0.02 in0.5 mm
01:25 PM 58.5°F14.7°C 51.0°F10.6°C 76% 4.6 mph SW7.4 kmh SW 6.9 mph11.1 kmh 29.68 in1005.1 mb - 0.00 in0.0 mm 0.02 in0.5 mm
01:30 PM 58.7°F14.8°C 50.8°F10.4°C 75% 6.9 mph SW11.1 kmh SW 11.5 mph18.5 kmh 29.68 in1005.1 mb - 0.00 in0.0 mm 0.02 in0.5 mm
01:35 PM 58.8°F14.9°C 50.9°F10.5°C 75% 6.9 mph SW11.1 kmh SW 12.7 mph20.4 kmh 29.68 in1005.1 mb - 0.00 in0.0 mm 0.02 in0.5 mm
01:40 PM 58.8°F14.9°C 51.3°F10.7°C 76% 6.9 mph WSW11.1 kmh WSW 11.5 mph18.5 kmh 29.68 in1005.1 mb - 0.00 in0.0 mm 0.02 in0.5 mm
01:45 PM 59.0°F15.0°C 51.4°F10.8°C 76% 3.5 mph WSW5.6 kmh WSW 8.1 mph13.0 kmh 29.68 in1005.1 mb - 0.00 in0.0 mm 0.02 in0.5 mm
01:50 PM 59.9°F15.5°C 52.3°F11.3°C 76% 4.6 mph SW7.4 kmh SW 9.2 mph14.8 kmh 29.68 in1005.1 mb - 0.00 in0.0 mm 0.02 in0.5 mm
01:55 PM 60.4°F15.8°C 52.1°F11.2°C 74% 6.9 mph SW11.1 kmh SW 13.8 mph22.2 kmh 29.68 in1005.1 mb - 0.00 in0.0 mm 0.02 in0.5 mm
02:00 PM 60.3°F15.7°C 52.0°F11.1°C 74% 6.9 mph WSW11.1 kmh WSW 11.5 mph18.5 kmh 29.68 in1005.1 mb - 0.00 in0.0 mm 0.02 in0.5 mm
02:05 PM 60.9°F16.1°C 52.6°F11.4°C 74% 4.6 mph SW7.4 kmh SW 10.4 mph16.7 kmh 29.67 in1004.7 mb - 0.00 in0.0 mm 0.02 in0.5 mm
02:10 PM 61.2°F16.2°C 52.5°F11.4°C 73% 10.4 mph SW16.7 kmh SW 11.5 mph18.5 kmh 29.67 in1004.7 mb - 0.00 in0.0 mm 0.02 in0.5 mm
02:15 PM 60.9°F16.1°C 51.8°F11.0°C 72% 4.6 mph SW7.4 kmh SW 8.1 mph13.0 kmh 29.67 in1004.7 mb - 0.00 in0.0 mm 0.02 in0.5 mm
02:20 PM 60.9°F16.1°C 52.9°F11.6°C 75% 4.6 mph WSW7.4 kmh WSW 9.2 mph14.8 kmh 29.67 in1004.7 mb - 0.00 in0.0 mm 0.02 in0.5 mm
02:25 PM 60.9°F16.1°C 52.6°F11.4°C 74% 6.9 mph W11.1 kmh W 10.4 mph16.7 kmh 29.67 in1004.7 mb - 0.00 in0.0 mm 0.02 in0.5 mm
02:30 PM 60.6°F15.9°C 51.5°F10.8°C 72% 5.8 mph W9.3 kmh W 11.5 mph18.5 kmh 29.67 in1004.7 mb - 0.00 in0.0 mm 0.02 in0.5 mm
02:35 PM 60.2°F15.7°C 51.5°F10.8°C 73% 8.1 mph W13.0 kmh W 16.1 mph25.9 kmh 29.68 in1005.1 mb - 0.00 in0.0 mm 0.02 in0.5 mm
02:40 PM 59.5°F15.3°C 51.9°F11.1°C 76% 8.1 mph W13.0 kmh W 13.8 mph22.2 kmh 29.68 in1005.1 mb - 0.01 in0.3 mm 0.03 in0.8 mm
02:45 PM 58.6°F14.8°C 51.0°F10.6°C 76% 8.1 mph W13.0 kmh W 11.5 mph18.5 kmh 29.68 in1005.1 mb - 0.01 in0.3 mm 0.04 in1.0 mm
02:50 PM 57.8°F14.3°C 50.6°F10.3°C 77% 5.8 mph W9.3 kmh W 15.0 mph24.1 kmh 29.68 in1005.1 mb - 0.00 in0.0 mm 0.04 in1.0 mm
02:55 PM 57.1°F13.9°C 50.0°F10.0°C 77% 8.1 mph W13.0 kmh W 13.8 mph22.2 kmh 29.68 in1005.1 mb - 0.00 in0.0 mm 0.04 in1.0 mm
03:00 PM 56.7°F13.7°C 49.6°F9.8°C 77% 4.6 mph WNW7.4 kmh WNW 8.1 mph13.0 kmh 29.68 in1005.1 mb - 0.00 in0.0 mm 0.04 in1.0 mm
03:05 PM 56.7°F13.7°C 49.2°F9.6°C 76% 5.8 mph WNW9.3 kmh WNW 19.6 mph31.5 kmh 29.69 in1005.4 mb - 0.00 in0.0 mm 0.04 in1.0 mm
03:10 PM 56.8°F13.8°C 49.3°F9.6°C 76% 10.4 mph NW16.7 kmh NW 17.3 mph27.8 kmh 29.69 in1005.4 mb - 0.01 in0.3 mm 0.05 in1.3 mm
03:15 PM 57.0°F13.9°C 49.5°F9.7°C 76% 4.6 mph W7.4 kmh W 10.4 mph16.7 kmh 29.69 in1005.4 mb - 0.00 in0.0 mm 0.05 in1.3 mm
03:20 PM 57.3°F14.1°C 49.8°F9.9°C 76% 4.6 mph W7.4 kmh W 10.4 mph16.7 kmh 29.69 in1005.4 mb - 0.00 in0.0 mm 0.05 in1.3 mm
03:25 PM 58.0°F14.4°C 50.4°F10.2°C 76% 3.5 mph W5.6 kmh W 9.2 mph14.8 kmh 29.69 in1005.4 mb - 0.00 in0.0 mm 0.05 in1.3 mm
03:30 PM 58.6°F14.8°C 51.1°F10.6°C 76% 4.6 mph W7.4 kmh W 6.9 mph11.1 kmh 29.69 in1005.4 mb - 0.00 in0.0 mm 0.05 in1.3 mm
03:35 PM 59.1°F15.1°C 51.6°F10.9°C 76% 6.9 mph WSW11.1 kmh WSW 10.4 mph16.7 kmh 29.68 in1005.1 mb - 0.00 in0.0 mm 0.05 in1.3 mm
03:40 PM 59.4°F15.2°C 51.8°F11.0°C 76% 9.2 mph W14.8 kmh W 11.5 mph18.5 kmh 29.69 in1005.4 mb - 0.00 in0.0 mm 0.05 in1.3 mm
03:45 PM 59.1°F15.1°C 51.5°F10.8°C 76% 8.1 mph WSW13.0 kmh WSW 11.5 mph18.5 kmh 29.69 in1005.4 mb - 0.00 in0.0 mm 0.05 in1.3 mm
03:50 PM 59.1°F15.1°C 51.5°F10.8°C 76% 6.9 mph W11.1 kmh W 11.5 mph18.5 kmh 29.69 in1005.4 mb - 0.00 in0.0 mm 0.05 in1.3 mm
03:55 PM 59.4°F15.2°C 51.8°F11.0°C 76% 10.4 mph WSW16.7 kmh WSW 15.0 mph24.1 kmh 29.69 in1005.4 mb - 0.00 in0.0 mm 0.05 in1.3 mm
04:00 PM 59.5°F15.3°C 51.9°F11.1°C 76% 8.1 mph W13.0 kmh W 11.5 mph18.5 kmh 29.70 in1005.8 mb - 0.00 in0.0 mm 0.05 in1.3 mm
04:05 PM 59.4°F15.2°C 51.8°F11.0°C 76% 9.2 mph WSW14.8 kmh WSW 13.8 mph22.2 kmh 29.69 in1005.4 mb - 0.00 in0.0 mm 0.05 in1.3 mm
04:10 PM 59.4°F15.2°C 51.5°F10.8°C 75% 9.2 mph WSW14.8 kmh WSW 16.1 mph25.9 kmh 29.69 in1005.4 mb - 0.00 in0.0 mm 0.05 in1.3 mm
04:15 PM 59.1°F15.1°C 51.2°F10.7°C 75% 9.2 mph WSW14.8 kmh WSW 15.0 mph24.1 kmh 29.69 in1005.4 mb - 0.00 in0.0 mm 0.05 in1.3 mm
04:20 PM 59.4°F15.2°C 51.4°F10.8°C 75% 6.9 mph WSW11.1 kmh WSW 11.5 mph18.5 kmh 29.69 in1005.4 mb - 0.00 in0.0 mm 0.05 in1.3 mm
04:25 PM 59.7°F15.4°C 51.8°F11.0°C 75% 5.8 mph WSW9.3 kmh WSW 11.5 mph18.5 kmh 29.69 in1005.4 mb - 0.00 in0.0 mm 0.05 in1.3 mm
04:30 PM 59.9°F15.5°C 51.6°F10.9°C 74% 6.9 mph WSW11.1 kmh WSW 10.4 mph16.7 kmh 29.70 in1005.8 mb - 0.00 in0.0 mm 0.05 in1.3 mm
04:35 PM 59.7°F15.4°C 51.4°F10.8°C 74% 4.6 mph WSW7.4 kmh WSW 10.4 mph16.7 kmh 29.70 in1005.8 mb - 0.00 in0.0 mm 0.05 in1.3 mm
04:40 PM 59.7°F15.4°C 51.8°F11.0°C 75% 5.8 mph W9.3 kmh W 9.2 mph14.8 kmh 29.70 in1005.8 mb - 0.00 in0.0 mm 0.05 in1.3 mm
04:45 PM 60.2°F15.7°C 52.2°F11.2°C 75% 2.3 mph WSW3.7 kmh WSW 2.3 mph3.7 kmh 29.70 in1005.8 mb - 0.00 in0.0 mm 0.05 in1.3 mm
04:50 PM 60.3°F15.7°C 52.3°F11.3°C 75% 5.8 mph WSW9.3 kmh WSW 6.9 mph11.1 kmh 29.70 in1005.8 mb - 0.00 in0.0 mm 0.05 in1.3 mm
04:55 PM 60.2°F15.7°C 52.2°F11.2°C 75% 6.9 mph W11.1 kmh W 13.8 mph22.2 kmh 29.70 in1005.8 mb - 0.00 in0.0 mm 0.05 in1.3 mm
05:00 PM 60.0°F15.6°C 51.7°F10.9°C 74% 5.8 mph WSW9.3 kmh WSW 10.4 mph16.7 kmh 29.70 in1005.8 mb - 0.00 in0.0 mm 0.05 in1.3 mm
05:05 PM 59.9°F15.5°C 51.2°F10.7°C 73% 8.1 mph WSW13.0 kmh WSW 13.8 mph22.2 kmh 29.70 in1005.8 mb - 0.00 in0.0 mm 0.05 in1.3 mm
05:10 PM 59.9°F15.5°C 51.2°F10.7°C 73% 5.8 mph WSW9.3 kmh WSW 9.2 mph14.8 kmh 29.70 in1005.8 mb - 0.00 in0.0 mm 0.05 in1.3 mm
05:15 PM 59.8°F15.4°C 51.1°F10.6°C 73% 6.9 mph WSW11.1 kmh WSW 11.5 mph18.5 kmh 29.70 in1005.8 mb - 0.00 in0.0 mm 0.05 in1.3 mm
05:20 PM 59.7°F15.4°C 51.1°F10.6°C 73% 6.9 mph WSW11.1 kmh WSW 13.8 mph22.2 kmh 29.70 in1005.8 mb - 0.00 in0.0 mm 0.05 in1.3 mm
05:25 PM 59.7°F15.4°C 51.1°F10.6°C 73% 6.9 mph WSW11.1 kmh WSW 16.1 mph25.9 kmh 29.71 in1006.1 mb - 0.00 in0.0 mm 0.05 in1.3 mm
05:30 PM 60.0°F15.6°C 50.9°F10.5°C 72% 11.5 mph WSW18.5 kmh WSW 17.3 mph27.8 kmh 29.71 in1006.1 mb - 0.00 in0.0 mm 0.05 in1.3 mm
05:35 PM 60.2°F15.7°C 51.1°F10.6°C 72% 6.9 mph W11.1 kmh W 9.2 mph14.8 kmh 29.71 in1006.1 mb - 0.00 in0.0 mm 0.05 in1.3 mm
05:40 PM 60.1°F15.6°C 51.0°F10.6°C 72% 5.8 mph WSW9.3 kmh WSW 10.4 mph16.7 kmh 29.71 in1006.1 mb - 0.00 in0.0 mm 0.05 in1.3 mm
05:45 PM 60.3°F15.7°C 51.2°F10.7°C 72% 8.1 mph W13.0 kmh W 11.5 mph18.5 kmh 29.71 in1006.1 mb - 0.00 in0.0 mm 0.05 in1.3 mm
05:50 PM 60.3°F15.7°C 51.2°F10.7°C 72% 4.6 mph W7.4 kmh W 10.4 mph16.7 kmh 29.71 in1006.1 mb - 0.00 in0.0 mm 0.05 in1.3 mm
05:55 PM 60.3°F15.7°C 51.2°F10.7°C 72% 8.1 mph WSW13.0 kmh WSW 12.7 mph20.4 kmh 29.71 in1006.1 mb - 0.00 in0.0 mm 0.05 in1.3 mm
06:00 PM 60.0°F15.6°C 51.0°F10.6°C 72% 3.5 mph WSW5.6 kmh WSW 9.2 mph14.8 kmh 29.72 in1006.4 mb - 0.00 in0.0 mm 0.05 in1.3 mm
06:05 PM 59.9°F15.5°C 51.2°F10.7°C 73% 6.9 mph WSW11.1 kmh WSW 11.5 mph18.5 kmh 29.72 in1006.4 mb - 0.00 in0.0 mm 0.05 in1.3 mm
06:10 PM 59.6°F15.3°C 50.9°F10.5°C 73% 6.9 mph WSW11.1 kmh WSW 13.8 mph22.2 kmh 29.72 in1006.4 mb - 0.00 in0.0 mm 0.05 in1.3 mm
06:15 PM 59.5°F15.3°C 50.8°F10.4°C 73% 8.1 mph W13.0 kmh W 11.5 mph18.5 kmh 29.72 in1006.4 mb - 0.00 in0.0 mm 0.05 in1.3 mm
06:20 PM 59.3°F15.2°C 50.6°F10.3°C 73% 6.9 mph W11.1 kmh W 13.8 mph22.2 kmh 29.73 in1006.8 mb - 0.00 in0.0 mm 0.05 in1.3 mm
06:25 PM 59.0°F15.0°C 50.7°F10.4°C 74% 8.1 mph WSW13.0 kmh WSW 11.5 mph18.5 kmh 29.73 in1006.8 mb - 0.00 in0.0 mm 0.05 in1.3 mm
06:30 PM 58.7°F14.8°C 50.4°F10.2°C 74% 6.9 mph WSW11.1 kmh WSW 11.5 mph18.5 kmh 29.73 in1006.8 mb - 0.00 in0.0 mm 0.05 in1.3 mm
06:35 PM 58.4°F14.7°C 50.5°F10.3°C 75% 4.6 mph W7.4 kmh W 6.9 mph11.1 kmh 29.73 in1006.8 mb - 0.00 in0.0 mm 0.05 in1.3 mm
06:40 PM 58.2°F14.6°C 50.3°F10.2°C 75% 4.6 mph WSW7.4 kmh WSW 11.5 mph18.5 kmh 29.73 in1006.8 mb - 0.00 in0.0 mm 0.05 in1.3 mm
06:45 PM 58.0°F14.4°C 50.1°F10.1°C 75% 4.6 mph W7.4 kmh W 8.1 mph13.0 kmh 29.73 in1006.8 mb - 0.00 in0.0 mm 0.05 in1.3 mm
06:50 PM 57.8°F14.3°C 50.3°F10.2°C 76% 4.6 mph W7.4 kmh W 10.4 mph16.7 kmh 29.73 in1006.8 mb - 0.00 in0.0 mm 0.05 in1.3 mm
06:55 PM 57.5°F14.2°C 50.0°F10.0°C 76% 4.6 mph WSW7.4 kmh WSW 10.4 mph16.7 kmh 29.73 in1006.8 mb - 0.00 in0.0 mm 0.05 in1.3 mm
07:00 PM 57.3°F14.1°C 49.8°F9.9°C 76% 3.5 mph WSW5.6 kmh WSW 6.9 mph11.1 kmh 29.73 in1006.8 mb - 0.00 in0.0 mm 0.05 in1.3 mm
07:05 PM 57.1°F13.9°C 49.6°F9.8°C 76% 2.3 mph WSW3.7 kmh WSW 3.5 mph5.6 kmh 29.73 in1006.8 mb - 0.00 in0.0 mm 0.05 in1.3 mm
07:10 PM 56.8°F13.8°C 49.3°F9.6°C 76% 3.5 mph WSW5.6 kmh WSW 5.8 mph9.3 kmh 29.73 in1006.8 mb - 0.00 in0.0 mm 0.05 in1.3 mm
07:15 PM 56.7°F13.7°C 49.2°F9.6°C 76% 5.8 mph WSW9.3 kmh WSW 10.4 mph16.7 kmh 29.74 in1007.1 mb - 0.00 in0.0 mm 0.05 in1.3 mm
07:20 PM 56.8°F13.8°C 49.3°F9.6°C 76% 3.5 mph WSW5.6 kmh WSW 5.8 mph9.3 kmh 29.74 in1007.1 mb - 0.00 in0.0 mm 0.05 in1.3 mm
07:25 PM 56.9°F13.8°C 49.4°F9.7°C 76% 5.8 mph WSW9.3 kmh WSW 11.5 mph18.5 kmh 29.75 in1007.5 mb - 0.00 in0.0 mm 0.05 in1.3 mm
07:30 PM 56.9°F13.8°C 49.4°F9.7°C 76% 4.6 mph W7.4 kmh W 8.1 mph13.0 kmh 29.75 in1007.5 mb - 0.00 in0.0 mm 0.05 in1.3 mm
07:35 PM 56.9°F13.8°C 49.4°F9.7°C 76% 2.3 mph W3.7 kmh W 3.5 mph5.6 kmh 29.75 in1007.5 mb - 0.00 in0.0 mm 0.05 in1.3 mm
07:40 PM 56.7°F13.7°C 49.2°F9.6°C 76% 2.3 mph W3.7 kmh W 5.8 mph9.3 kmh 29.75 in1007.5 mb - 0.00 in0.0 mm 0.05 in1.3 mm
07:45 PM 56.5°F13.6°C 49.4°F9.7°C 77% 2.3 mph WSW3.7 kmh WSW 3.5 mph5.6 kmh 29.75 in1007.5 mb - 0.00 in0.0 mm 0.05 in1.3 mm
07:50 PM 56.4°F13.6°C 49.3°F9.6°C 77% 6.9 mph SW11.1 kmh SW 11.5 mph18.5 kmh 29.76 in1007.8 mb - 0.00 in0.0 mm 0.05 in1.3 mm
07:55 PM 56.3°F13.5°C 48.8°F9.3°C 76% 5.8 mph WSW9.3 kmh WSW 9.2 mph14.8 kmh 29.76 in1007.8 mb - 0.00 in0.0 mm 0.05 in1.3 mm
08:00 PM 56.4°F13.6°C 48.9°F9.4°C 76% 1.2 mph WSW1.9 kmh WSW 2.3 mph3.7 kmh 29.76 in1007.8 mb - 0.00 in0.0 mm 0.05 in1.3 mm
08:05 PM 56.4°F13.6°C 48.9°F9.4°C 76% 2.3 mph WSW3.7 kmh WSW 2.3 mph3.7 kmh 29.76 in1007.8 mb - 0.00 in0.0 mm 0.05 in1.3 mm
08:10 PM 56.3°F13.5°C 49.2°F9.6°C 77% 1.2 mph WSW1.9 kmh WSW 2.3 mph3.7 kmh 29.76 in1007.8 mb - 0.00 in0.0 mm 0.05 in1.3 mm
08:15 PM 56.3°F13.5°C 49.2°F9.6°C 77% 2.3 mph W3.7 kmh W 6.9 mph11.1 kmh 29.76 in1007.8 mb - 0.00 in0.0 mm 0.05 in1.3 mm
08:20 PM 56.2°F13.4°C 48.7°F9.3°C 76% 4.6 mph WSW7.4 kmh WSW 8.1 mph13.0 kmh 29.76 in1007.8 mb - 0.00 in0.0 mm 0.05 in1.3 mm
08:25 PM 56.2°F13.4°C 48.7°F9.3°C 76% 2.3 mph W3.7 kmh W 3.5 mph5.6 kmh 29.76 in1007.8 mb - 0.00 in0.0 mm 0.05 in1.3 mm
08:30 PM 56.2°F13.4°C 48.7°F9.3°C 76% 8.1 mph WSW13.0 kmh WSW 12.7 mph20.4 kmh 29.76 in1007.8 mb - 0.00 in0.0 mm 0.05 in1.3 mm
08:35 PM 56.2°F13.4°C 48.7°F9.3°C 76% 2.3 mph W3.7 kmh W 5.8 mph9.3 kmh 29.76 in1007.8 mb - 0.00 in0.0 mm 0.05 in1.3 mm
08:40 PM 56.1°F13.4°C 48.6°F9.2°C 76% 2.3 mph WSW3.7 kmh WSW 3.5 mph5.6 kmh 29.76 in1007.8 mb - 0.00 in0.0 mm 0.05 in1.3 mm
08:45 PM 55.9°F13.3°C 48.5°F9.2°C 76% 2.3 mph WNW3.7 kmh WNW 4.6 mph7.4 kmh 29.76 in1007.8 mb - 0.00 in0.0 mm 0.05 in1.3 mm
08:50 PM 55.7°F13.2°C 48.6°F9.2°C 77% 1.2 mph WSW1.9 kmh WSW 1.2 mph1.9 kmh 29.77 in1008.1 mb - 0.00 in0.0 mm 0.05 in1.3 mm
08:55 PM 55.2°F12.9°C 48.2°F9.0°C 77% 3.5 mph WSW5.6 kmh WSW 3.5 mph5.6 kmh 29.77 in1008.1 mb - 0.00 in0.0 mm 0.05 in1.3 mm
09:00 PM 54.9°F12.7°C 47.9°F8.8°C 77% 4.6 mph W7.4 kmh W 8.1 mph13.0 kmh 29.77 in1008.1 mb - 0.00 in0.0 mm 0.05 in1.3 mm
09:05 PM 54.7°F12.6°C 47.6°F8.7°C 77% 3.5 mph W5.6 kmh W 5.8 mph9.3 kmh 29.77 in1008.1 mb - 0.00 in0.0 mm 0.05 in1.3 mm
09:10 PM 54.5°F12.5°C 47.4°F8.6°C 77% 1.2 mph WSW1.9 kmh WSW 3.5 mph5.6 kmh 29.78 in1008.5 mb - 0.00 in0.0 mm 0.05 in1.3 mm
09:15 PM 54.2°F12.3°C 47.1°F8.4°C 77% 3.5 mph WSW5.6 kmh WSW 6.9 mph11.1 kmh 29.78 in1008.5 mb - 0.00 in0.0 mm 0.05 in1.3 mm
09:20 PM 54.0°F12.2°C 47.0°F8.3°C 77% 3.5 mph W5.6 kmh W 5.8 mph9.3 kmh 29.78 in1008.5 mb - 0.00 in0.0 mm 0.05 in1.3 mm
09:25 PM 53.9°F12.2°C 46.8°F8.2°C 77% 2.3 mph W3.7 kmh W 5.8 mph9.3 kmh 29.78 in1008.5 mb - 0.00 in0.0 mm 0.05 in1.3 mm
09:30 PM 53.6°F12.0°C 46.6°F8.1°C 77% 2.3 mph WSW3.7 kmh WSW 5.8 mph9.3 kmh 29.78 in1008.5 mb - 0.00 in0.0 mm 0.05 in1.3 mm
09:35 PM 53.5°F11.9°C 46.5°F8.1°C 77% 2.3 mph W3.7 kmh W 3.5 mph5.6 kmh 29.78 in1008.5 mb - 0.00 in0.0 mm 0.05 in1.3 mm
09:40 PM 53.5°F11.9°C 46.4°F8.0°C 77% 3.5 mph W5.6 kmh W 8.1 mph13.0 kmh 29.78 in1008.5 mb - 0.00 in0.0 mm 0.05 in1.3 mm
09:45 PM 53.4°F11.9°C 46.4°F8.0°C 77% 3.5 mph W5.6 kmh W 6.9 mph11.1 kmh 29.78 in1008.5 mb - 0.00 in0.0 mm 0.05 in1.3 mm
09:50 PM 53.3°F11.8°C 46.3°F7.9°C 77% 4.6 mph WSW7.4 kmh WSW 8.1 mph13.0 kmh 29.78 in1008.5 mb - 0.00 in0.0 mm 0.05 in1.3 mm
09:55 PM 53.2°F11.8°C 46.2°F7.9°C 77% 3.5 mph WSW5.6 kmh WSW 8.1 mph13.0 kmh 29.79 in1008.8 mb - 0.00 in0.0 mm 0.05 in1.3 mm
10:00 PM 53.2°F11.8°C 46.2°F7.9°C 77% 3.5 mph WSW5.6 kmh WSW 6.9 mph11.1 kmh 29.78 in1008.5 mb - 0.00 in0.0 mm 0.05 in1.3 mm
10:05 PM 53.3°F11.8°C 46.3°F7.9°C 77% 4.6 mph WSW7.4 kmh WSW 6.9 mph11.1 kmh 29.79 in1008.8 mb - 0.00 in0.0 mm 0.05 in1.3 mm
10:10 PM 53.4°F11.9°C 46.4°F8.0°C 77% 4.6 mph WSW7.4 kmh WSW 8.1 mph13.0 kmh 29.79 in1008.8 mb - 0.00 in0.0 mm 0.05 in1.3 mm
10:15 PM 53.6°F12.0°C 46.6°F8.1°C 77% 2.3 mph WSW3.7 kmh WSW 6.9 mph11.1 kmh 29.79 in1008.8 mb - 0.00 in0.0 mm 0.05 in1.3 mm
10:20 PM 53.9°F12.2°C 46.8°F8.2°C 77% 4.6 mph WSW7.4 kmh WSW 11.5 mph18.5 kmh 29.79 in1008.8 mb - 0.00 in0.0 mm 0.05 in1.3 mm
10:25 PM 54.1°F12.3°C 47.1°F8.4°C 77% 3.5 mph WSW5.6 kmh WSW 8.1 mph13.0 kmh 29.79 in1008.8 mb - 0.00 in0.0 mm 0.05 in1.3 mm
10:30 PM 54.4°F12.4°C 47.3°F8.5°C 77% 5.8 mph WSW9.3 kmh WSW 9.2 mph14.8 kmh 29.79 in1008.8 mb - 0.00 in0.0 mm 0.05 in1.3 mm
10:35 PM 54.5°F12.5°C 47.4°F8.6°C 77% 3.5 mph WSW5.6 kmh WSW 6.9 mph11.1 kmh 29.79 in1008.8 mb - 0.00 in0.0 mm 0.05 in1.3 mm
10:40 PM 54.6°F12.6°C 47.5°F8.6°C 77% 4.6 mph WSW7.4 kmh WSW 6.9 mph11.1 kmh 29.79 in1008.8 mb - 0.00 in0.0 mm 0.05 in1.3 mm
10:45 PM 54.6°F12.6°C 47.5°F8.6°C 77% 3.5 mph W5.6 kmh W 3.5 mph5.6 kmh 29.79 in1008.8 mb - 0.00 in0.0 mm 0.05 in1.3 mm
10:50 PM 54.6°F12.6°C 47.6°F8.7°C 77% 2.3 mph WSW3.7 kmh WSW 6.9 mph11.1 kmh 29.79 in1008.8 mb - 0.00 in0.0 mm 0.05 in1.3 mm
10:55 PM 54.7°F12.6°C 47.6°F8.7°C 77% 2.3 mph WSW3.7 kmh WSW 4.6 mph7.4 kmh 29.79 in1008.8 mb - 0.00 in0.0 mm 0.05 in1.3 mm
11:00 PM 54.7°F12.6°C 47.6°F8.7°C 77% 4.6 mph W7.4 kmh W 6.9 mph11.1 kmh 29.79 in1008.8 mb - 0.00 in0.0 mm 0.06 in1.5 mm
11:05 PM 54.6°F12.6°C 47.5°F8.6°C 77% 3.5 mph WSW5.6 kmh WSW 8.1 mph13.0 kmh 29.79 in1008.8 mb - 0.00 in0.0 mm 0.06 in1.5 mm
11:10 PM 54.6°F12.6°C 47.5°F8.6°C 77% 4.6 mph WSW7.4 kmh WSW 8.1 mph13.0 kmh 29.79 in1008.8 mb - 0.00 in0.0 mm 0.06 in1.5 mm
11:15 PM 54.7°F12.6°C 47.6°F8.7°C 77% 5.8 mph WSW9.3 kmh WSW 6.9 mph11.1 kmh 29.79 in1008.8 mb - 0.00 in0.0 mm 0.06 in1.5 mm
11:20 PM 54.7°F12.6°C 47.6°F8.7°C 77% 3.5 mph WSW5.6 kmh WSW 5.8 mph9.3 kmh 29.79 in1008.8 mb - 0.00 in0.0 mm 0.06 in1.5 mm
11:25 PM 54.7°F12.6°C 47.6°F8.7°C 77% 3.5 mph WSW5.6 kmh WSW 5.8 mph9.3 kmh 29.79 in1008.8 mb - 0.00 in0.0 mm 0.06 in1.5 mm
11:30 PM 54.5°F12.5°C 47.4°F8.6°C 77% 3.5 mph WSW5.6 kmh WSW 3.5 mph5.6 kmh 29.79 in1008.8 mb - 0.00 in0.0 mm 0.06 in1.5 mm
11:35 PM 54.3°F12.4°C 47.2°F8.4°C 77% 3.5 mph WSW5.6 kmh WSW 3.5 mph5.6 kmh 29.79 in1008.8 mb - 0.00 in0.0 mm 0.06 in1.5 mm
11:40 PM 54.1°F12.3°C 47.0°F8.3°C 77% 3.5 mph WSW5.6 kmh WSW 8.1 mph13.0 kmh 29.79 in1008.8 mb - 0.00 in0.0 mm 0.06 in1.5 mm
11:45 PM 53.9°F12.2°C 46.9°F8.3°C 77% 4.6 mph WSW7.4 kmh WSW 6.9 mph11.1 kmh 29.79 in1008.8 mb - 0.00 in0.0 mm 0.06 in1.5 mm
11:50 PM 53.9°F12.2°C 46.9°F8.3°C 77% 2.3 mph W3.7 kmh W 3.5 mph5.6 kmh 29.79 in1008.8 mb - 0.00 in0.0 mm 0.06 in1.5 mm
11:55 PM 53.9°F12.2°C 46.9°F8.3°C 77% 2.3 mph WSW3.7 kmh WSW 9.2 mph14.8 kmh 29.79 in1008.8 mb - 0.00 in0.0 mm 0.06 in1.5 mm